createdAt,value
2023-09-20T00:02:05.665Z,94921.75
2023-09-20T00:04:34.322Z,94926.38
2023-09-20T00:07:02.025Z,94922.00
2023-09-20T00:09:31.723Z,94925.00
2023-09-20T00:11:59.482Z,94921.19
2023-09-20T00:14:30.602Z,94919.00
2023-09-20T00:16:58.764Z,94919.81
2023-09-20T00:19:27.028Z,94922.00
2023-09-20T00:21:54.715Z,94921.72
2023-09-20T00:24:22.402Z,94915.97
2023-09-20T00:26:50.097Z,94911.56
2023-09-20T00:29:17.840Z,94914.84
2023-09-20T00:31:47.008Z,94917.03
2023-09-20T00:34:14.833Z,94918.66
2023-09-20T00:36:42.663Z,94906.63
2023-09-20T00:39:11.335Z,94909.06
2023-09-20T00:41:39.066Z,94908.25
2023-09-20T00:44:07.274Z,94907.69
2023-09-20T00:46:35.049Z,94912.06
2023-09-20T00:49:04.642Z,94907.09
2023-09-20T00:51:32.342Z,94907.91
2023-09-20T00:54:04.604Z,94911.13
2023-09-20T00:56:32.652Z,94903.66
2023-09-20T00:59:06.084Z,94899.56
2023-09-20T01:01:35.172Z,94893.19
2023-09-20T01:04:06.582Z,94906.31
2023-09-20T01:06:35.425Z,94906.56
2023-09-20T01:09:03.649Z,94908.50
2023-09-20T01:11:32.117Z,94897.84
2023-09-20T01:14:00.797Z,94896.50
2023-09-20T01:16:28.835Z,94895.16
2023-09-20T01:18:56.721Z,94897.09
2023-09-20T01:21:26.044Z,94884.81
2023-09-20T01:23:55.463Z,94890.56
2023-09-20T01:26:23.323Z,94879.94
2023-09-20T01:28:51.124Z,94885.09
2023-09-20T01:31:18.914Z,94891.09
2023-09-20T01:33:46.711Z,94898.16
2023-09-20T01:36:14.952Z,94890.53
2023-09-20T01:38:43.761Z,94879.28
2023-09-20T01:41:13.534Z,94883.69
2023-09-20T01:43:42.391Z,94883.41
2023-09-20T01:46:10.440Z,94879.63
2023-09-20T01:48:39.145Z,94886.69
2023-09-20T01:51:07.345Z,94879.59
2023-09-20T01:53:35.161Z,94874.66
2023-09-20T01:56:04.271Z,94870.25
2023-09-20T01:58:33.571Z,94873.81
2023-09-20T02:01:01.431Z,94883.91
2023-09-20T02:03:32.914Z,94885.59
2023-09-20T02:06:01.133Z,94879.84
2023-09-20T02:08:28.929Z,94876.28
2023-09-20T02:10:57.847Z,94874.06
2023-09-20T02:13:25.671Z,94870.69
2023-09-20T02:15:55.465Z,94868.44
2023-09-20T02:18:23.907Z,94862.63
2023-09-20T02:20:51.782Z,94865.63
2023-09-20T02:23:20.025Z,94871.66
2023-09-20T02:25:49.531Z,94870.06
2023-09-20T02:28:17.967Z,94873.34
2023-09-20T02:30:46.597Z,94874.97
2023-09-20T02:33:19.660Z,94865.44
2023-09-20T02:35:47.471Z,94870.94
2023-09-20T02:38:15.263Z,94873.94
2023-09-20T02:40:46.528Z,94867.31
2023-09-20T02:43:14.349Z,94864.50
2023-09-20T02:45:46.461Z,94866.63
2023-09-20T02:48:15.678Z,94853.50
2023-09-20T02:50:45.473Z,94846.94
2023-09-20T02:53:13.627Z,94851.28
2023-09-20T02:55:41.994Z,94850.72
2023-09-20T02:58:10.270Z,94855.13
2023-09-20T03:00:40.088Z,94855.69
2023-09-20T03:03:09.050Z,94861.16
2023-09-20T03:05:39.336Z,94846.44
2023-09-20T03:08:12.447Z,94843.19
2023-09-20T03:10:42.916Z,94838.53
2023-09-20T03:13:17.615Z,94833.09
2023-09-20T03:15:46.798Z,94837.72
2023-09-20T03:18:15.936Z,94833.88
2023-09-20T03:20:49.487Z,94832.19
2023-09-20T03:23:17.403Z,94829.47
2023-09-20T03:25:45.288Z,94835.53
2023-09-20T03:28:13.093Z,94833.34
2023-09-20T03:30:41.395Z,94822.97
2023-09-20T03:33:10.982Z,94822.44
2023-09-20T03:35:39.248Z,94823.25
2023-09-20T03:38:10.254Z,94830.63
2023-09-20T03:40:38.742Z,94825.44
2023-09-20T03:43:08.859Z,94826.25
2023-09-20T03:45:36.872Z,94820.22
2023-09-20T03:48:07.007Z,94823.50
2023-09-20T03:50:34.965Z,94820.72
2023-09-20T03:53:02.928Z,94819.91
2023-09-20T03:55:34.386Z,94827.84
2023-09-20T03:58:02.191Z,94825.94
2023-09-20T04:00:32.568Z,94825.13
2023-09-20T04:03:02.547Z,94823.47
2023-09-20T04:08:49.791Z,94823.50
2023-09-20T04:08:51.469Z,94828.41
2023-09-20T04:11:24.043Z,94831.69
2023-09-20T04:13:59.383Z,94844.28
2023-09-20T04:16:29.228Z,94849.16
2023-09-20T04:19:11.890Z,94849.03
2023-09-20T04:21:57.596Z,94841.03
2023-09-20T04:24:27.737Z,94834.47
2023-09-20T04:27:45.100Z,94831.44
2023-09-20T04:30:15.745Z,94833.06
2023-09-20T05:04:53.487Z,94815.56
2023-09-20T05:07:38.702Z,94821.84
2023-09-20T05:10:21.078Z,94827.59
2023-09-20T05:24:44.838Z,94839.44
2023-09-20T05:27:15.978Z,94820.59
2023-09-20T05:29:45.623Z,94833.16
2023-09-20T05:32:16.362Z,94825.97
2023-09-20T05:34:50.801Z,94833.88
2023-09-20T05:37:23.919Z,94830.34
2023-09-20T05:40:25.859Z,94824.66
2023-09-20T05:43:08.599Z,94821.19
2023-09-20T05:45:48.354Z,94817.69
2023-09-20T05:52:31.361Z,94808.06
2023-09-20T05:55:17.926Z,94805.91
2023-09-20T05:57:49.939Z,94790.94
2023-09-20T06:00:26.894Z,94794.22
2023-09-20T06:02:56.184Z,94797.53
2023-09-20T06:05:26.118Z,94804.13
2023-09-20T06:08:02.586Z,94804.19
2023-09-20T06:10:33.980Z,94817.38
2023-09-20T06:13:02.585Z,94826.44
2023-09-20T06:19:19.950Z,94833.63
2023-09-20T06:21:56.722Z,94827.63
2023-09-20T06:24:33.891Z,94833.38
2023-09-20T06:27:12.249Z,94830.94
2023-09-20T06:37:17.484Z,94838.91
2023-09-20T06:40:29.936Z,94844.34
2023-09-20T06:44:06.902Z,94838.84
2023-09-20T06:47:16.853Z,94838.81
2023-09-20T06:50:01.801Z,94836.63
2023-09-20T06:57:10.910Z,94816.19
2023-09-20T06:59:54.437Z,94818.84
2023-09-20T07:10:24.371Z,94814.66
2023-09-20T07:13:15.157Z,94815.06
2023-09-20T07:16:03.092Z,94812.44
2023-09-20T07:20:04.809Z,94805.31
2023-09-20T07:47:24.565Z,94789.72
2023-09-20T07:49:54.545Z,94785.59
2023-09-20T07:52:24.552Z,94791.44
2023-09-20T07:54:52.505Z,94791.25
2023-09-20T07:57:22.626Z,94786.88
2023-09-20T07:59:55.059Z,94786.69
2023-09-20T08:02:23.044Z,94779.81
2023-09-20T08:04:50.968Z,94774.28
2023-09-20T08:07:20.329Z,94768.94
2023-09-20T08:09:56.047Z,94776.22
2023-09-20T08:12:24.112Z,94780.41
2023-09-20T08:14:53.353Z,94782.47
2023-09-20T08:17:38.740Z,94778.34
2023-09-20T08:20:11.955Z,94764.75
2023-09-20T08:22:59.150Z,94762.16
2023-09-20T08:25:44.206Z,94770.16
2023-09-20T08:28:29.418Z,94768.13
2023-09-20T08:31:16.208Z,94776.19
2023-09-20T08:34:01.502Z,94773.59
2023-09-20T08:36:52.952Z,94773.06
2023-09-20T08:39:38.234Z,94767.22
2023-09-20T08:42:23.446Z,94769.81
2023-09-20T08:45:13.115Z,94755.38
2023-09-20T08:48:20.818Z,94747.63
2023-09-20T08:51:06.542Z,94757.78
2023-09-20T08:53:51.813Z,94756.00
2023-09-20T08:56:37.307Z,94747.41
2023-09-20T08:59:23.178Z,94753.78
2023-09-20T09:01:51.218Z,94749.09
2023-09-20T09:04:20.943Z,94756.63
2023-09-20T09:06:49.073Z,94759.94
2023-09-20T09:09:17.225Z,94750.31
2023-09-20T09:11:47.240Z,94755.50
2023-09-20T09:14:15.617Z,94762.53
2023-09-20T09:16:44.098Z,94745.56
2023-09-20T09:19:12.088Z,94746.84
2023-09-20T09:21:41.474Z,94746.03
2023-09-20T09:24:09.923Z,94739.13
2023-09-20T09:26:38.231Z,94746.81
2023-09-20T09:29:08.444Z,94742.53
2023-09-20T09:31:38.210Z,94738.44
2023-09-20T09:34:08.673Z,94739.06
2023-09-20T09:36:39.291Z,94726.97
2023-09-20T09:39:32.150Z,94737.66
2023-09-20T09:42:02.287Z,94725.34
2023-09-20T09:44:30.205Z,94726.75
2023-09-20T09:46:58.172Z,94722.25
2023-09-20T09:49:28.568Z,94726.53
2023-09-20T09:51:56.636Z,94726.94
2023-09-20T09:54:25.935Z,94725.44
2023-09-20T09:56:53.840Z,94710.25
2023-09-20T09:59:21.778Z,94716.44
2023-09-20T10:01:51.921Z,94717.22
2023-09-20T10:04:23.091Z,94720.81
2023-09-20T10:06:56.386Z,94712.59
2023-09-20T10:09:27.354Z,94707.84
2023-09-20T10:11:55.216Z,94698.75
2023-09-20T10:14:23.572Z,94702.28
2023-09-20T10:16:52.233Z,94690.59
2023-09-20T10:19:20.072Z,94693.16
2023-09-20T10:22:03.784Z,94684.69
2023-09-20T10:24:45.170Z,94688.31
2023-09-20T10:27:17.919Z,94674.84
2023-09-20T10:30:00.698Z,94678.28
2023-09-20T10:32:34.000Z,94668.81
2023-09-20T10:35:22.776Z,94658.16
2023-09-20T10:38:24.087Z,94666.63
2023-09-20T10:41:04.417Z,94652.34
2023-09-20T10:43:50.040Z,94652.44
2023-09-20T10:46:19.974Z,94648.19
2023-09-20T10:48:52.130Z,94645.63
2023-09-20T10:51:42.852Z,94643.75
2023-09-20T10:54:23.662Z,94640.47
2023-09-20T10:57:04.360Z,94642.09
2023-09-20T10:59:35.618Z,94635.34
2023-09-20T11:02:06.647Z,94630.25
2023-09-20T11:04:35.315Z,94632.91
2023-09-20T11:07:03.738Z,94630.50
2023-09-20T11:09:34.897Z,94634.09
2023-09-20T11:12:12.989Z,94623.44
2023-09-20T11:14:42.746Z,94612.69
2023-09-20T11:17:15.206Z,94618.75
2023-09-20T11:19:43.238Z,94617.25
2023-09-20T11:22:11.173Z,94612.06
2023-09-20T11:24:40.607Z,94614.63
2023-09-20T11:27:11.703Z,94610.38
2023-09-20T11:29:41.878Z,94616.03
2023-09-20T11:32:12.642Z,94612.53
2023-09-20T11:34:49.171Z,94612.03
2023-09-20T11:37:18.905Z,94606.91
2023-09-20T11:39:47.886Z,94607.53
2023-09-20T11:42:29.542Z,94604.09
2023-09-20T11:45:07.296Z,94592.78
2023-09-20T11:47:45.534Z,94589.97
2023-09-20T11:50:15.304Z,94586.47
2023-09-20T11:52:45.467Z,94578.38
2023-09-20T11:55:14.900Z,94579.25
2023-09-20T11:57:46.493Z,94575.22
2023-09-20T12:00:17.963Z,94574.63
2023-09-20T12:02:46.291Z,94573.09
2023-09-20T12:05:14.475Z,94570.75
2023-09-20T12:07:44.091Z,94569.69
2023-09-20T12:10:12.051Z,94567.88
2023-09-20T12:12:40.104Z,94562.59
2023-09-20T12:15:10.916Z,94569.41
2023-09-20T12:17:38.670Z,94557.78
2023-09-20T12:20:07.863Z,94556.94
2023-09-20T12:22:35.528Z,94556.56
2023-09-20T12:25:03.230Z,94551.63
2023-09-20T12:27:30.897Z,94542.97
2023-09-20T12:29:58.586Z,94541.34
2023-09-20T12:32:28.042Z,94535.22
2023-09-20T12:34:56.380Z,94532.47
2023-09-20T12:37:24.464Z,94535.22
2023-09-20T12:39:53.976Z,94523.88
2023-09-20T12:42:22.046Z,94518.38
2023-09-20T12:44:51.025Z,94518.81
2023-09-20T12:47:21.064Z,94508.50
2023-09-20T12:49:50.150Z,94498.94
2023-09-20T12:52:18.620Z,94495.72
2023-09-20T12:54:46.311Z,94499.69
2023-09-20T12:57:15.481Z,94506.19
2023-09-20T12:59:43.249Z,94497.19
2023-09-20T13:02:11.419Z,94489.78
2023-09-20T13:04:39.243Z,94485.56
2023-09-20T13:07:08.574Z,94482.91
2023-09-20T13:09:36.987Z,94480.53
2023-09-20T13:12:05.037Z,94477.72
2023-09-20T13:14:32.714Z,94477.03
2023-09-20T13:17:01.988Z,94486.13
2023-09-20T13:19:29.655Z,94481.25
2023-09-20T13:22:00.552Z,94471.25
2023-09-20T13:24:30.671Z,94472.44
2023-09-20T13:26:58.418Z,94469.44
2023-09-20T13:29:28.933Z,94461.97
2023-09-20T13:31:56.913Z,94457.69
2023-09-20T13:34:26.366Z,94452.03
2023-09-20T13:36:54.156Z,94453.53
2023-09-20T13:39:21.861Z,94449.31
2023-09-20T13:41:51.004Z,94444.97
2023-09-20T13:44:20.579Z,94449.81
2023-09-20T13:46:48.425Z,94441.09
2023-09-20T13:49:17.299Z,94439.03
2023-09-20T13:51:45.242Z,94432.63
2023-09-20T13:54:13.966Z,94432.72
2023-09-20T13:56:41.911Z,94434.25
2023-09-20T13:59:11.469Z,94424.53
2023-09-20T14:01:40.647Z,94417.25
2023-09-20T14:04:10.851Z,94420.84
2023-09-20T14:06:39.217Z,94420.84
2023-09-20T14:09:09.334Z,94412.63
2023-09-20T14:11:37.064Z,94419.75
2023-09-20T14:14:06.085Z,94416.88
2023-09-20T14:16:36.023Z,94409.13
2023-09-20T14:19:03.795Z,94406.97
2023-09-20T14:21:32.393Z,94395.81
2023-09-20T14:24:00.341Z,94400.84
2023-09-20T14:26:29.013Z,94401.25
2023-09-20T14:28:56.757Z,94396.91
2023-09-20T14:31:24.479Z,94383.59
2023-09-20T14:33:53.561Z,94387.53
2023-09-20T14:36:22.764Z,94386.72
2023-09-20T14:38:50.508Z,94381.44
2023-09-20T14:42:24.790Z,94387.72
2023-09-20T14:44:41.281Z,94383.97
2023-09-20T14:47:09.137Z,94389.88
2023-09-20T14:49:38.352Z,94385.72
2023-09-20T14:52:06.495Z,94387.06
2023-09-20T14:54:36.795Z,94385.81
2023-09-20T14:57:04.721Z,94379.63
2023-09-20T14:59:33.789Z,94371.81
2023-09-20T15:02:01.821Z,94362.09
2023-09-20T15:04:32.712Z,94366.59
2023-09-20T15:07:03.061Z,94367.47
2023-09-20T15:09:32.004Z,94370.59
2023-09-20T15:12:00.506Z,94360.53
2023-09-20T15:14:30.993Z,94359.72
2023-09-20T15:17:02.701Z,94361.16
2023-09-20T15:19:31.504Z,94345.66
2023-09-20T15:22:00.030Z,94351.59
2023-09-20T15:24:29.360Z,94344.88
2023-09-20T15:26:57.854Z,94346.91
2023-09-20T15:29:25.877Z,94345.59
2023-09-20T15:31:55.028Z,94345.03
2023-09-20T15:34:23.458Z,94332.53
2023-09-20T15:36:51.280Z,94324.78
2023-09-20T15:39:19.286Z,94322.88
2023-09-20T15:41:48.819Z,94322.19
2023-09-20T15:44:16.742Z,94317.34
2023-09-20T15:46:46.276Z,94327.31
2023-09-20T15:49:14.535Z,94324.22
2023-09-20T15:51:42.332Z,94332.47
2023-09-20T15:54:10.156Z,94327.63
2023-09-20T15:56:40.081Z,94333.09
2023-09-20T15:59:09.387Z,94330.91
2023-09-20T16:01:37.716Z,94329.53
2023-09-20T16:04:08.672Z,94323.31
2023-09-20T16:06:47.220Z,94328.19
2023-09-20T16:09:15.875Z,94321.53
2023-09-20T16:11:47.713Z,94316.06
2023-09-20T16:14:17.908Z,94320.69
2023-09-20T16:16:45.675Z,94316.00
2023-09-20T16:19:13.618Z,94310.13
2023-09-20T16:21:41.630Z,94316.09
2023-09-20T16:24:09.453Z,94312.75
2023-09-20T16:26:38.703Z,94300.25
2023-09-20T16:29:06.478Z,94309.88
2023-09-20T16:31:35.586Z,94313.94
2023-09-20T16:34:03.376Z,94311.38
2023-09-20T16:36:31.114Z,94308.81
2023-09-20T16:38:58.846Z,94310.75
2023-09-20T16:41:26.603Z,94310.28
2023-09-20T16:43:54.317Z,94305.22
2023-09-20T16:46:22.009Z,94303.69
2023-09-20T16:48:51.156Z,94306.88
2023-09-20T16:51:18.841Z,94300.41
2023-09-20T16:53:46.653Z,94297.72
2023-09-20T16:56:16.572Z,94306.06
2023-09-20T16:58:44.822Z,94298.88
2023-09-20T17:01:17.659Z,94300.94
2023-09-20T17:03:45.682Z,94298.03
2023-09-20T17:06:14.912Z,94297.38
2023-09-20T17:08:42.626Z,94296.94
2023-09-20T17:11:11.201Z,94291.09
2023-09-20T17:13:39.675Z,94291.09
2023-09-20T17:16:08.430Z,94283.47
2023-09-20T17:18:36.295Z,94284.63
2023-09-20T17:21:05.188Z,94284.88
2023-09-20T17:23:34.322Z,94283.50
2023-09-20T17:26:02.055Z,94280.53
2023-09-20T17:28:29.750Z,94283.44
2023-09-20T17:31:03.208Z,94294.59
2023-09-20T17:33:31.049Z,94282.66
2023-09-20T17:36:02.307Z,94291.03
2023-09-20T17:38:30.254Z,94287.72
2023-09-20T17:41:01.155Z,94297.69
2023-09-20T17:43:30.528Z,94294.63
2023-09-20T17:45:59.848Z,94294.56
2023-09-20T17:48:27.739Z,94284.66
2023-09-20T17:50:55.512Z,94289.53
2023-09-20T17:53:23.430Z,94286.94
2023-09-20T17:55:52.616Z,94299.81
2023-09-20T17:58:21.719Z,94290.38
2023-09-20T18:00:49.851Z,94291.84
2023-09-20T18:03:17.707Z,94292.00
2023-09-20T18:05:45.518Z,94299.81
2023-09-20T18:08:13.214Z,94291.72
2023-09-20T18:10:40.945Z,94294.13
2023-09-20T18:13:08.653Z,94293.63
2023-09-20T18:15:37.659Z,94295.75
2023-09-20T18:18:06.353Z,94293.47
2023-09-20T18:20:34.185Z,94295.25
2023-09-20T18:23:02.936Z,94289.88
2023-09-20T18:25:30.625Z,94299.66
2023-09-20T18:27:58.363Z,94306.78
2023-09-20T18:30:26.137Z,94304.03
2023-09-20T18:32:57.039Z,94310.66
2023-09-20T18:35:26.198Z,94304.00
2023-09-20T18:37:54.091Z,94301.16
2023-09-20T18:40:21.764Z,94299.19
2023-09-20T18:42:49.456Z,94302.47
2023-09-20T18:45:17.241Z,94310.81
2023-09-20T18:47:46.297Z,94313.09
2023-09-20T18:50:18.716Z,94308.69
2023-09-20T18:52:48.049Z,94313.13
2023-09-20T18:55:18.654Z,94308.69
2023-09-20T18:57:51.861Z,94298.94
2023-09-20T19:00:20.073Z,94304.06
2023-09-20T19:02:49.241Z,94304.22
2023-09-20T19:05:18.925Z,94294.13
2023-09-20T19:07:47.999Z,94295.44
2023-09-20T19:10:17.102Z,94294.00
2023-09-20T19:12:45.333Z,94296.44
2023-09-20T19:15:15.098Z,94289.78
2023-09-20T19:17:44.220Z,94290.09
2023-09-20T19:20:14.323Z,94293.19
2023-09-20T19:22:44.785Z,94292.50
2023-09-20T19:25:14.131Z,94294.41
2023-09-20T19:27:42.539Z,94292.41
2023-09-20T19:30:11.448Z,94300.03
2023-09-20T19:32:40.189Z,94283.78
2023-09-20T19:35:10.159Z,94288.50
2023-09-20T19:37:37.826Z,94288.22
2023-09-20T19:40:17.419Z,94282.69
2023-09-20T19:42:46.795Z,94283.00
2023-09-20T19:45:16.468Z,94281.72
2023-09-20T19:47:45.392Z,94279.09
2023-09-20T19:50:15.775Z,94280.19
2023-09-20T19:52:44.237Z,94274.19
2023-09-20T19:55:13.908Z,94270.94
2023-09-20T19:57:43.029Z,94274.00
2023-09-20T20:00:20.220Z,94274.94
2023-09-20T20:02:49.911Z,94270.91
2023-09-20T20:05:18.498Z,94268.06
2023-09-20T20:07:48.008Z,94268.50
2023-09-20T20:10:17.213Z,94265.00
2023-09-20T20:12:45.779Z,94268.31
2023-09-20T20:15:13.831Z,94265.13
2023-09-20T20:17:44.809Z,94261.41
2023-09-20T20:20:21.585Z,94257.34
2023-09-20T20:22:54.165Z,94259.94
2023-09-20T20:25:26.433Z,94258.03
2023-09-20T20:27:54.319Z,94253.25
2023-09-20T20:30:22.165Z,94256.00
2023-09-20T20:32:51.149Z,94245.63
2023-09-20T20:35:19.270Z,94263.78
2023-09-20T20:37:47.609Z,94259.09
2023-09-20T20:40:16.794Z,94247.97
2023-09-20T20:42:46.040Z,94247.16
2023-09-20T20:45:19.861Z,94240.03
2023-09-20T20:47:48.531Z,94235.59
2023-09-20T20:50:17.822Z,94233.56
2023-09-20T20:52:49.124Z,94234.16
2023-09-20T20:55:20.900Z,94226.31
2023-09-20T20:57:51.497Z,94230.31
2023-09-20T21:00:25.104Z,94232.97
2023-09-20T21:02:54.431Z,94235.72
2023-09-20T21:05:25.067Z,94235.91
2023-09-20T21:07:53.708Z,94227.84
2023-09-20T21:10:22.499Z,94231.31
2023-09-20T21:12:52.383Z,94233.28
2023-09-20T21:15:22.616Z,94229.91
2023-09-20T21:17:51.872Z,94223.19
2023-09-20T21:20:25.025Z,94225.84
2023-09-20T21:22:57.296Z,94216.47
2023-09-20T21:25:28.222Z,94223.59
2023-09-20T21:27:58.387Z,94222.78
2023-09-20T21:30:27.297Z,94224.81
2023-09-20T21:32:56.621Z,94217.25
2023-09-20T21:35:24.672Z,94225.28
2023-09-20T21:37:55.793Z,94212.16
2023-09-20T21:40:24.251Z,94216.59
2023-09-20T21:42:52.970Z,94225.56
2023-09-20T21:45:25.603Z,94224.94
2023-09-20T21:47:53.810Z,94212.63
2023-09-20T21:50:23.275Z,94211.81
2023-09-20T21:52:53.959Z,94211.09
2023-09-20T21:55:22.157Z,94206.50
2023-09-20T21:57:50.148Z,94211.38
2023-09-20T22:00:30.794Z,94211.66
2023-09-20T22:03:01.929Z,94211.03
2023-09-20T22:05:30.214Z,94208.78
2023-09-20T22:08:02.934Z,94204.91
2023-09-20T22:10:39.439Z,94201.97
2023-09-20T22:13:09.547Z,94213.78
2023-09-20T22:15:38.357Z,94203.91
2023-09-20T22:18:18.953Z,94197.91
2023-09-20T22:20:51.375Z,94204.88
2023-09-20T22:23:20.386Z,94198.75
2023-09-20T22:25:49.235Z,94204.25
2023-09-20T22:28:19.003Z,94205.84
2023-09-20T22:30:47.898Z,94202.91
2023-09-20T22:33:17.942Z,94198.38
2023-09-20T22:35:51.681Z,94201.34
2023-09-20T22:38:29.372Z,94195.03
2023-09-20T22:40:57.089Z,94187.53
2023-09-20T22:43:26.047Z,94188.22
2023-09-20T22:45:53.796Z,94195.13
2023-09-20T22:48:24.726Z,94183.84
2023-09-20T22:50:54.015Z,94189.56
2023-09-20T22:53:24.796Z,94190.28
2023-09-20T22:55:53.289Z,94189.72
2023-09-20T22:58:22.017Z,94184.44
2023-09-20T23:00:51.876Z,94192.38
2023-09-20T23:03:21.643Z,94183.34
2023-09-20T23:05:52.054Z,94187.19
2023-09-20T23:08:20.515Z,94183.03
2023-09-20T23:10:51.892Z,94189.63
2023-09-20T23:13:22.507Z,94182.84
2023-09-20T23:15:53.839Z,94182.03
2023-09-20T23:18:23.208Z,94178.28
2023-09-20T23:20:53.710Z,94178.88
2023-09-20T23:23:25.180Z,94171.75
2023-09-20T23:25:54.097Z,94176.44
2023-09-20T23:28:24.262Z,94166.25
2023-09-20T23:30:59.143Z,94170.34
2023-09-20T23:33:29.001Z,94161.38
2023-09-20T23:35:58.711Z,94159.84
2023-09-20T23:38:29.592Z,94152.19
2023-09-20T23:41:06.239Z,94153.59
2023-09-20T23:43:35.022Z,94150.13
2023-09-20T23:46:09.127Z,94143.94
2023-09-20T23:48:38.514Z,94148.72
2023-09-20T23:51:08.730Z,94143.66
2023-09-20T23:53:37.301Z,94149.72
2023-09-20T23:56:05.899Z,94138.78
2023-09-20T23:58:33.631Z,94142.94
